KTYR - Tyler, Texas, USA
Distance from station: WNW 10mi, 17km
Updated: Tue, 16-Jan-2018 8:53pm CST
Clear
Clear
 Wind from NNW
Wind: NNW 3 mph , 6 km/h
Temperature: 16°F , -9°C
Dew Point: 7°F , -14°C
Humidity: 67%
Barometer: 30.72 inHg , 1040.3 hPa
Clouds: Clear
Visibility: 10 miles , 16 km
2018/01/17 02:53 KTYR 170253Z 34003KT 10SM CLR M09/M14 A3072 RMK AO2 SLP411 T10891144 52015
KRFI - Henderson Rusk C, Texas, USA
Distance from station: ESE 25mi, 40km
Updated: Tue, 26-Dec-2017 5:35pm CST
NOT Current
Drizzle, Overcast
Drizzle, Overcast
 Wind from NNE
Wind: NNE 5 mph , 7 km/h
Temperature: 39°F , 4°C
Wind Chill: 35°F , 2°C
Dew Point: 37°F , 3°C
Humidity: 93%
Barometer: 30.33 inHg , 1027.1 hPa
Summary: Drizzle
Clouds: Overcast
Visibility: 10 miles , 16 km
Cloud details: Overcast 2300 ft
2017/12/26 23:35 KRFI 262335Z AUTO 02004KT 10SM DZ OVC023 04/03 A3033 RMK AO2 T00370025
 
KJSO - Jacksonville, Texas, USA
Distance from station: S 30mi, 48km
Updated: Tue, 16-Jan-2018 9:35pm CST
Clear
Clear
 Wind from NNW
Wind: NNW 5 mph , 7 km/h
Temperature: 19°F , -7°C
Wind Chill: 12°F , -11°C
Dew Point: 9°F , -13°C
Humidity: 63%
Barometer: 30.72 inHg , 1040.3 hPa
Clouds: Clear
Visibility: 10 miles , 16 km
2018/01/17 03:35 KJSO 170335Z AUTO 34004KT 10SM CLR M07/M13 A3072 RMK AO2 T10751132
KGGG - Longview, Texas, USA
Distance from station: ENE 31mi, 50km
Updated: Tue, 16-Jan-2018 8:53pm CST
Clear
Clear
 Wind from NW
Wind: NW 3 mph , 6 km/h
Temperature: 14°F , -10°C
Dew Point: 9°F , -13°C
Humidity: 79%
Barometer: 30.72 inHg , 1040.3 hPa
Clouds: Clear
Visibility: 10 miles , 16 km
2018/01/17 02:53 KGGG 170253Z AUTO 32003KT 10SM CLR M10/M13 A3072 RMK AO2 SLP413 T11001128 51014
 
KJXI - Gilmer Muni, Texas, USA
Distance from station: NNE 33mi, 53km
Updated: Tue, 16-Jan-2018 9:15pm CST
Clear
Clear
 
Temperature: 18°F , -8°C
Dew Point: 3°F , -16°C
Humidity: 53%
Barometer: 30.74 inHg , 1041 hPa
Clouds: Clear
Visibility: 10 miles , 16 km
2018/01/17 03:15 KJXI 170315Z AUTO 10SM CLR M08/M16 A3074 RMK AO2 T10791156
KJDD - Mineola/Quitman, Texas, USA
Distance from station: NNW 35mi, 56km
Updated: Tue, 16-Jan-2018 9:15pm CST
Clear
Clear
 Wind from N
Wind: N 6 mph , 9 km/h
Temperature: 19°F , -7°C
Wind Chill: 11°F , -12°C
Dew Point: 3°F , -16°C
Humidity: 49%
Barometer: 30.75 inHg , 1041.3 hPa
Clouds: Clear
Visibility: 10 miles , 16 km
2018/01/17 03:15 KJDD 170315Z AUTO 36005KT 10SM CLR M07/M16 A3075 RMK AO2
 
KF44 - Athens, Texas, USA
Distance from station: WSW 36mi, 57km
Updated: Tue, 16-Jan-2018 9:15pm CST
Clear
Clear
 Wind from N
Wind: N 3 mph , 6 km/h
Temperature: 16°F , -9°C
Dew Point: 5°F , -15°C
Humidity: 62%
Barometer: 30.74 inHg , 1041 hPa
Clouds: Clear
Visibility: 10 miles , 16 km
2018/01/17 03:15 KF44 170315Z AUTO 01003KT 10SM CLR M09/M15 A3074 RMK AO2
KPSN - Palestine Muni, Texas, USA
Distance from station: SW 44mi, 71km
Updated: Tue, 16-Jan-2018 9:15pm CST
Clear
Clear
 Wind from NNW
Wind: NNW 3 mph , 6 km/h
Temperature: 19°F , -7°C
Dew Point: 14°F , -10°C
Humidity: 79%
Barometer: 30.75 inHg , 1041.3 hPa
Clouds: Clear
Visibility: 10 miles , 16 km
2018/01/17 03:15 KPSN 170315Z AUTO 34003KT 10SM CLR M07/M10 A3075 RMK AO2 T10781105
 
KASL - Marshall, Texas, USA
Distance from station: ENE 57mi, 92km
Updated: Tue, 16-Jan-2018 9:15pm CST
Clear
Clear
 Wind from calm
Wind: Calm
Temperature: 19°F , -7°C
Dew Point: 7°F , -14°C
Humidity: 58%
Barometer: 30.74 inHg , 1041 hPa
Clouds: Clear
Visibility: 10 miles , 16 km
2018/01/17 03:15 KASL 170315Z AUTO 00000KT 10SM CLR M07/M14 A3074 RMK AO1 T10751141
KOSA - Mount Pleasant, Texas, USA
Distance from station: NNE 58mi, 93km
Updated: Tue, 16-Jan-2018 9:15pm CST
Clear
Clear
 Wind from NNW
Wind: NNW 9 mph , 15 km/h
Temperature: 18°F , -8°C
Wind Chill: 7°F , -14°C
Dew Point: 3°F , -16°C
Humidity: 53%
Barometer: 30.76 inHg , 1041.7 hPa
Clouds: Clear
Visibility: 10 miles , 16 km
2018/01/17 03:15 KOSA 170315Z AUTO 34008KT 10SM CLR M08/M16 A3076 RMK AO1 T10821157
 
KOCH - Nacogdoches, Texas, USA
Distance from station: SSE 59mi, 95km
Updated: Tue, 16-Jan-2018 8:56pm CST
Clear
Clear
 Wind from NNW
Wind: NNW 7 mph , 11 km/h
Temperature: 19°F , -7°C
Wind Chill: 10°F , -12°C
Dew Point: 9°F , -13°C
Humidity: 63%
Barometer: 30.72 inHg , 1040.3 hPa
Clouds: Clear
Visibility: 10 miles , 16 km
2018/01/17 02:56 KOCH 170256Z AUTO 34006KT 10SM CLR M07/M13 A3072 RMK AO2 SLP414 T10721128 51018 FZRANO
KSLR - Sulphur Springs, Texas, USA
Distance from station: NNW 64mi, 103km
Updated: Tue, 16-Jan-2018 9:15pm CST
Clear
Clear
 Wind from N
Wind: N 12 mph , 19 km/h
Temperature: 19°F , -7°C
Wind Chill: 6°F , -14°C
Dew Point: 3°F , -16°C
Humidity: 49%
Barometer: 30.77 inHg , 1042 hPa
Clouds: Clear
Visibility: 10 miles , 16 km
2018/01/17 03:15 KSLR 170315Z AUTO 01010KT 10SM CLR M07/M16 A3077 RMK AO2 T10671157
 
KTRL - Terrell, Texas, USA
Distance from station: WNW 66mi, 107km
Updated: Tue, 16-Jan-2018 8:53pm CST
Clear
Clear
 Wind from NNE
Wind: NNE 6 mph , 9 km/h
Temperature: 18°F , -8°C
Wind Chill: 10°F , -12°C
Dew Point: 3°F , -16°C
Humidity: 53%
Barometer: 30.76 inHg , 1041.7 hPa
Clouds: Clear
Visibility: 10 miles , 16 km
2018/01/17 02:53 KTRL 170253Z AUTO 02005KT 10SM CLR M08/M16 A3076 RMK AO2 SLP423 T10781161 51019
KCRS - Corsicana, Texas, USA
Distance from station: WSW 70mi, 113km
Updated: Tue, 16-Jan-2018 8:53pm CST
Clear
Clear
 Wind from N
Wind: N 6 mph , 9 km/h
Temperature: 19°F , -7°C
Wind Chill: 11°F , -12°C
Dew Point: 9°F , -13°C
Humidity: 63%
Barometer: 30.76 inHg , 1041.7 hPa
Clouds: Clear
Visibility: 10 miles , 16 km
2018/01/17 02:53 KCRS 170253Z AUTO 01005KT 10SM CLR M07/M13 A3076 RMK AO2 SLP421 T10721133 51015
 
KGVT - Greenville/Major, Texas, USA
Distance from station: NW 72mi, 115km
Updated: Tue, 16-Jan-2018 9:10pm CST
Clear
Clear
 Wind from N
Wind: N 7 mph , 11 km/h
Temperature: 21°F , -6°C
Wind Chill: 12°F , -11°C
Dew Point: 5°F , -15°C
Humidity: 49%
Barometer: 30.76 inHg , 1041.7 hPa
Clouds: Clear
Visibility: 10 miles , 16 km
2018/01/17 03:10 KGVT 170310Z AUTO 36006KT 10SM CLR M06/M15 A3076 RMK AO2

Metar display script from Saratoga-Weather.org